sensor_id;sensor_type;location;lat;lon;timestamp;temperature;humidity
17381;DHT22;8808;52.478;13.378;2023-09-07T00:01:34;18.10;99.90
17381;DHT22;8808;52.478;13.378;2023-09-07T00:04:02;18.10;99.90
17381;DHT22;8808;52.478;13.378;2023-09-07T00:06:29;18.20;99.90
17381;DHT22;8808;52.478;13.378;2023-09-07T00:08:56;18.10;99.90
17381;DHT22;8808;52.478;13.378;2023-09-07T00:11:23;18.20;99.90
17381;DHT22;8808;52.478;13.378;2023-09-07T00:13:50;18.10;99.90
17381;DHT22;8808;52.478;13.378;2023-09-07T00:16:17;18.10;99.90
17381;DHT22;8808;52.478;13.378;2023-09-07T00:18:45;18.10;99.90
17381;DHT22;8808;52.478;13.378;2023-09-07T00:21:12;18.00;99.90
17381;DHT22;8808;52.478;13.378;2023-09-07T00:23:40;18.10;99.90
17381;DHT22;8808;52.478;13.378;2023-09-07T00:26:06;18.10;99.90
17381;DHT22;8808;52.478;13.378;2023-09-07T00:28:34;18.10;99.90
17381;DHT22;8808;52.478;13.378;2023-09-07T00:31:00;17.70;99.90
17381;DHT22;8808;52.478;13.378;2023-09-07T00:33:27;18.00;99.90
17381;DHT22;8808;52.478;13.378;2023-09-07T00:35:56;17.90;99.90
17381;DHT22;8808;52.478;13.378;2023-09-07T00:38:23;17.90;99.90
17381;DHT22;8808;52.478;13.378;2023-09-07T00:40:49;18.00;99.90
17381;DHT22;8808;52.478;13.378;2023-09-07T00:43:17;17.80;99.90
17381;DHT22;8808;52.478;13.378;2023-09-07T00:45:44;17.90;99.90
17381;DHT22;8808;52.478;13.378;2023-09-07T00:48:12;17.80;99.90
17381;DHT22;8808;52.478;13.378;2023-09-07T00:50:40;18.50;99.90
17381;DHT22;8808;52.478;13.378;2023-09-07T00:53:08;18.10;99.90
17381;DHT22;8808;52.478;13.378;2023-09-07T00:55:37;17.90;99.90
17381;DHT22;8808;52.478;13.378;2023-09-07T00:58:05;17.90;99.90
17381;DHT22;8808;52.478;13.378;2023-09-07T01:03:07;17.70;99.90
17381;DHT22;8808;52.478;13.378;2023-09-07T01:05:41;17.70;99.90
17381;DHT22;8808;52.478;13.378;2023-09-07T01:08:15;17.70;99.90
17381;DHT22;8808;52.478;13.378;2023-09-07T01:10:45;17.70;99.90
17381;DHT22;8808;52.478;13.378;2023-09-07T01:13:14;17.70;99.90
17381;DHT22;8808;52.478;13.378;2023-09-07T01:15:41;17.70;99.90
17381;DHT22;8808;52.478;13.378;2023-09-07T01:18:09;17.70;99.90
17381;DHT22;8808;52.478;13.378;2023-09-07T01:20:37;17.60;99.90
17381;DHT22;8808;52.478;13.378;2023-09-07T01:23:07;17.50;99.90
17381;DHT22;8808;52.478;13.378;2023-09-07T01:25:34;17.40;99.90
17381;DHT22;8808;52.478;13.378;2023-09-07T01:28:01;17.50;99.90
17381;DHT22;8808;52.478;13.378;2023-09-07T01:30:28;17.50;99.90
17381;DHT22;8808;52.478;13.378;2023-09-07T01:32:55;17.50;99.90
17381;DHT22;8808;52.478;13.378;2023-09-07T01:35:23;17.40;99.90
17381;DHT22;8808;52.478;13.378;2023-09-07T01:37:50;17.40;99.90
17381;DHT22;8808;52.478;13.378;2023-09-07T01:40:18;17.30;99.90
17381;DHT22;8808;52.478;13.378;2023-09-07T01:42:45;17.30;99.90
17381;DHT22;8808;52.478;13.378;2023-09-07T01:45:12;17.30;99.90
17381;DHT22;8808;52.478;13.378;2023-09-07T01:47:39;17.30;99.90
17381;DHT22;8808;52.478;13.378;2023-09-07T01:50:06;17.30;99.90
17381;DHT22;8808;52.478;13.378;2023-09-07T01:52:33;17.30;99.90
17381;DHT22;8808;52.478;13.378;2023-09-07T01:55:00;17.20;99.90
17381;DHT22;8808;52.478;13.378;2023-09-07T01:57:28;17.20;99.90
17381;DHT22;8808;52.478;13.378;2023-09-07T01:59:56;17.30;99.90
17381;DHT22;8808;52.478;13.378;2023-09-07T02:02:23;17.30;99.90
17381;DHT22;8808;52.478;13.378;2023-09-07T02:04:49;17.30;99.90
17381;DHT22;8808;52.478;13.378;2023-09-07T02:07:16;17.20;99.90
17381;DHT22;8808;52.478;13.378;2023-09-07T02:09:43;17.20;99.90
17381;DHT22;8808;52.478;13.378;2023-09-07T02:12:10;17.20;99.90
17381;DHT22;8808;52.478;13.378;2023-09-07T02:14:38;17.10;99.90
17381;DHT22;8808;52.478;13.378;2023-09-07T02:17:05;17.10;99.90
17381;DHT22;8808;52.478;13.378;2023-09-07T02:19:33;17.10;99.90
17381;DHT22;8808;52.478;13.378;2023-09-07T02:22:00;17.10;99.90
17381;DHT22;8808;52.478;13.378;2023-09-07T02:24:27;17.20;99.90
17381;DHT22;8808;52.478;13.378;2023-09-07T02:26:55;17.20;99.90
17381;DHT22;8808;52.478;13.378;2023-09-07T02:29:22;17.30;99.90
17381;DHT22;8808;52.478;13.378;2023-09-07T02:31:51;17.40;99.90
17381;DHT22;8808;52.478;13.378;2023-09-07T02:34:18;17.30;99.90
17381;DHT22;8808;52.478;13.378;2023-09-07T02:36:45;17.70;99.90
17381;DHT22;8808;52.478;13.378;2023-09-07T02:39:12;17.90;99.90
17381;DHT22;8808;52.478;13.378;2023-09-07T02:41:39;17.80;99.90
17381;DHT22;8808;52.478;13.378;2023-09-07T02:44:06;17.70;99.90
17381;DHT22;8808;52.478;13.378;2023-09-07T02:46:33;17.50;99.90
17381;DHT22;8808;52.478;13.378;2023-09-07T02:49:01;17.50;99.90
17381;DHT22;8808;52.478;13.378;2023-09-07T02:51:28;17.40;99.90
17381;DHT22;8808;52.478;13.378;2023-09-07T02:53:56;17.40;99.90
17381;DHT22;8808;52.478;13.378;2023-09-07T02:56:24;17.40;99.90
17381;DHT22;8808;52.478;13.378;2023-09-07T02:58:51;17.30;99.90
17381;DHT22;8808;52.478;13.378;2023-09-07T03:01:18;17.30;99.90
17381;DHT22;8808;52.478;13.378;2023-09-07T03:03:46;17.30;99.90
17381;DHT22;8808;52.478;13.378;2023-09-07T03:06:16;17.40;99.90
17381;DHT22;8808;52.478;13.378;2023-09-07T03:08:43;17.40;99.90
17381;DHT22;8808;52.478;13.378;2023-09-07T03:11:10;17.40;99.90
17381;DHT22;8808;52.478;13.378;2023-09-07T03:13:37;17.40;99.90
17381;DHT22;8808;52.478;13.378;2023-09-07T03:16:05;17.40;99.90
17381;DHT22;8808;52.478;13.378;2023-09-07T03:18:32;18.00;99.90
17381;DHT22;8808;52.478;13.378;2023-09-07T03:21:00;17.90;99.90
17381;DHT22;8808;52.478;13.378;2023-09-07T03:23:29;18.00;99.90
17381;DHT22;8808;52.478;13.378;2023-09-07T03:25:56;18.00;99.90
17381;DHT22;8808;52.478;13.378;2023-09-07T03:28:23;17.90;99.90
17381;DHT22;8808;52.478;13.378;2023-09-07T03:30:50;17.90;99.90
17381;DHT22;8808;52.478;13.378;2023-09-07T03:33:17;17.90;99.90
17381;DHT22;8808;52.478;13.378;2023-09-07T03:35:45;17.90;99.90
17381;DHT22;8808;52.478;13.378;2023-09-07T03:38:13;17.90;99.90
17381;DHT22;8808;52.478;13.378;2023-09-07T03:40:41;18.00;99.90
17381;DHT22;8808;52.478;13.378;2023-09-07T03:43:08;18.00;99.90
17381;DHT22;8808;52.478;13.378;2023-09-07T03:45:35;18.00;99.90
17381;DHT22;8808;52.478;13.378;2023-09-07T03:48:03;17.80;99.90
17381;DHT22;8808;52.478;13.378;2023-09-07T03:50:30;17.90;99.90
17381;DHT22;8808;52.478;13.378;2023-09-07T03:52:57;17.90;99.90
17381;DHT22;8808;52.478;13.378;2023-09-07T03:55:24;17.80;99.90
17381;DHT22;8808;52.478;13.378;2023-09-07T03:57:52;17.80;99.90
17381;DHT22;8808;52.478;13.378;2023-09-07T04:00:19;17.70;99.90
17381;DHT22;8808;52.478;13.378;2023-09-07T04:02:46;17.70;99.90
17381;DHT22;8808;52.478;13.378;2023-09-07T04:05:13;17.60;99.90
17381;DHT22;8808;52.478;13.378;2023-09-07T04:07:40;17.60;99.90
17381;DHT22;8808;52.478;13.378;2023-09-07T04:10:07;17.50;99.90
17381;DHT22;8808;52.478;13.378;2023-09-07T04:12:34;17.40;99.90
17381;DHT22;8808;52.478;13.378;2023-09-07T04:15:03;17.40;99.90
17381;DHT22;8808;52.478;13.378;2023-09-07T04:17:30;17.40;99.90
17381;DHT22;8808;52.478;13.378;2023-09-07T04:20:06;17.40;99.90
17381;DHT22;8808;52.478;13.378;2023-09-07T04:22:34;17.40;99.90
17381;DHT22;8808;52.478;13.378;2023-09-07T04:25:01;17.40;99.90
17381;DHT22;8808;52.478;13.378;2023-09-07T04:27:28;17.40;99.90
17381;DHT22;8808;52.478;13.378;2023-09-07T04:29:55;17.40;99.90
17381;DHT22;8808;52.478;13.378;2023-09-07T04:32:23;17.50;99.90
17381;DHT22;8808;52.478;13.378;2023-09-07T04:34:53;17.50;99.90
17381;DHT22;8808;52.478;13.378;2023-09-07T04:37:21;17.80;99.90
17381;DHT22;8808;52.478;13.378;2023-09-07T04:39:51;17.70;99.90
17381;DHT22;8808;52.478;13.378;2023-09-07T04:42:18;17.50;99.90
17381;DHT22;8808;52.478;13.378;2023-09-07T04:44:45;17.40;99.90
17381;DHT22;8808;52.478;13.378;2023-09-07T04:47:12;17.40;99.90
17381;DHT22;8808;52.478;13.378;2023-09-07T04:49:41;17.40;99.90
17381;DHT22;8808;52.478;13.378;2023-09-07T04:52:08;17.50;99.90
17381;DHT22;8808;52.478;13.378;2023-09-07T04:54:35;17.30;99.90
17381;DHT22;8808;52.478;13.378;2023-09-07T04:57:02;17.40;99.90
17381;DHT22;8808;52.478;13.378;2023-09-07T04:59:29;17.40;99.90
17381;DHT22;8808;52.478;13.378;2023-09-07T05:01:59;17.40;99.90
17381;DHT22;8808;52.478;13.378;2023-09-07T05:04:26;18.30;99.90
17381;DHT22;8808;52.478;13.378;2023-09-07T05:06:55;19.10;99.90
17381;DHT22;8808;52.478;13.378;2023-09-07T05:09:22;19.90;99.90
17381;DHT22;8808;52.478;13.378;2023-09-07T05:11:50;20.30;99.90
17381;DHT22;8808;52.478;13.378;2023-09-07T05:14:17;20.60;99.90
17381;DHT22;8808;52.478;13.378;2023-09-07T05:16:44;20.90;99.90
17381;DHT22;8808;52.478;13.378;2023-09-07T05:19:11;20.90;99.90
17381;DHT22;8808;52.478;13.378;2023-09-07T05:21:38;21.00;99.90
17381;DHT22;8808;52.478;13.378;2023-09-07T05:24:07;19.90;99.90
17381;DHT22;8808;52.478;13.378;2023-09-07T05:26:34;18.80;99.90
17381;DHT22;8808;52.478;13.378;2023-09-07T05:29:01;18.60;99.90
17381;DHT22;8808;52.478;13.378;2023-09-07T05:31:27;18.60;99.90
17381;DHT22;8808;52.478;13.378;2023-09-07T05:33:54;18.70;99.90
17381;DHT22;8808;52.478;13.378;2023-09-07T05:36:21;18.80;99.90
17381;DHT22;8808;52.478;13.378;2023-09-07T05:38:48;18.90;99.90
17381;DHT22;8808;52.478;13.378;2023-09-07T05:41:16;19.00;99.90
17381;DHT22;8808;52.478;13.378;2023-09-07T05:43:43;19.10;99.90
17381;DHT22;8808;52.478;13.378;2023-09-07T05:46:10;19.20;99.90
17381;DHT22;8808;52.478;13.378;2023-09-07T05:48:37;19.30;99.90
17381;DHT22;8808;52.478;13.378;2023-09-07T05:51:04;19.40;99.90
17381;DHT22;8808;52.478;13.378;2023-09-07T05:53:31;19.50;99.90
17381;DHT22;8808;52.478;13.378;2023-09-07T05:55:58;19.60;99.90
17381;DHT22;8808;52.478;13.378;2023-09-07T05:58:26;19.80;99.90
17381;DHT22;8808;52.478;13.378;2023-09-07T06:00:53;19.80;99.90
17381;DHT22;8808;52.478;13.378;2023-09-07T06:03:20;20.00;99.90
17381;DHT22;8808;52.478;13.378;2023-09-07T06:05:47;20.10;99.90
17381;DHT22;8808;52.478;13.378;2023-09-07T06:08:14;20.10;99.90
17381;DHT22;8808;52.478;13.378;2023-09-07T06:10:41;20.30;99.90
17381;DHT22;8808;52.478;13.378;2023-09-07T06:13:08;20.40;99.90
17381;DHT22;8808;52.478;13.378;2023-09-07T06:15:36;20.40;99.90
17381;DHT22;8808;52.478;13.378;2023-09-07T06:18:04;20.70;99.90
17381;DHT22;8808;52.478;13.378;2023-09-07T06:20:30;20.80;99.90
17381;DHT22;8808;52.478;13.378;2023-09-07T06:22:57;21.00;99.90
17381;DHT22;8808;52.478;13.378;2023-09-07T06:25:24;21.00;99.90
17381;DHT22;8808;52.478;13.378;2023-09-07T06:27:52;21.00;99.90
17381;DHT22;8808;52.478;13.378;2023-09-07T06:30:19;20.90;99.90
17381;DHT22;8808;52.478;13.378;2023-09-07T06:32:48;21.00;99.90
17381;DHT22;8808;52.478;13.378;2023-09-07T06:35:17;21.30;99.90
17381;DHT22;8808;52.478;13.378;2023-09-07T06:37:44;21.40;99.90
17381;DHT22;8808;52.478;13.378;2023-09-07T06:40:11;21.60;99.90
17381;DHT22;8808;52.478;13.378;2023-09-07T06:42:39;21.50;99.90
17381;DHT22;8808;52.478;13.378;2023-09-07T06:45:07;21.60;99.90
17381;DHT22;8808;52.478;13.378;2023-09-07T06:47:34;21.80;99.90
17381;DHT22;8808;52.478;13.378;2023-09-07T06:50:04;21.80;99.90
17381;DHT22;8808;52.478;13.378;2023-09-07T06:52:31;22.00;99.90
17381;DHT22;8808;52.478;13.378;2023-09-07T06:54:58;22.30;99.90
17381;DHT22;8808;52.478;13.378;2023-09-07T06:57:25;22.20;99.90
17381;DHT22;8808;52.478;13.378;2023-09-07T06:59:52;22.30;99.90
17381;DHT22;8808;52.478;13.378;2023-09-07T07:02:20;22.40;99.90
17381;DHT22;8808;52.478;13.378;2023-09-07T07:04:46;22.50;99.90
17381;DHT22;8808;52.478;13.378;2023-09-07T07:09:42;22.60;99.90
17381;DHT22;8808;52.478;13.378;2023-09-07T07:12:09;22.70;99.90
17381;DHT22;8808;52.478;13.378;2023-09-07T07:14:37;22.50;99.90
17381;DHT22;8808;52.478;13.378;2023-09-07T07:17:04;23.00;99.90
17381;DHT22;8808;52.478;13.378;2023-09-07T07:19:31;23.10;99.90
17381;DHT22;8808;52.478;13.378;2023-09-07T07:21:58;23.10;99.90
17381;DHT22;8808;52.478;13.378;2023-09-07T07:24:26;22.80;99.90
17381;DHT22;8808;52.478;13.378;2023-09-07T07:26:53;23.00;99.90
17381;DHT22;8808;52.478;13.378;2023-09-07T07:29:20;23.20;99.90
17381;DHT22;8808;52.478;13.378;2023-09-07T07:31:47;23.60;99.90
17381;DHT22;8808;52.478;13.378;2023-09-07T07:34:14;23.50;99.90
17381;DHT22;8808;52.478;13.378;2023-09-07T07:36:41;23.20;99.90
17381;DHT22;8808;52.478;13.378;2023-09-07T07:39:08;23.30;99.90
17381;DHT22;8808;52.478;13.378;2023-09-07T07:44:04;23.80;99.90
17381;DHT22;8808;52.478;13.378;2023-09-07T07:46:31;23.80;99.90
17381;DHT22;8808;52.478;13.378;2023-09-07T07:48:58;23.90;99.90
17381;DHT22;8808;52.478;13.378;2023-09-07T07:51:25;23.90;99.90
17381;DHT22;8808;52.478;13.378;2023-09-07T08:08:40;24.60;99.90
17381;DHT22;8808;52.478;13.378;2023-09-07T08:13:35;24.60;99.90
17381;DHT22;8808;52.478;13.378;2023-09-07T08:16:04;24.70;99.90
17381;DHT22;8808;52.478;13.378;2023-09-07T08:18:32;24.70;99.90
17381;DHT22;8808;52.478;13.378;2023-09-07T08:23:27;24.80;99.90
17381;DHT22;8808;52.478;13.378;2023-09-07T08:25:54;24.90;99.90
17381;DHT22;8808;52.478;13.378;2023-09-07T08:28:21;25.00;99.90
17381;DHT22;8808;52.478;13.378;2023-09-07T08:30:49;24.90;99.90
17381;DHT22;8808;52.478;13.378;2023-09-07T08:33:20;25.10;99.90
17381;DHT22;8808;52.478;13.378;2023-09-07T08:35:52;25.20;99.90
17381;DHT22;8808;52.478;13.378;2023-09-07T08:38:20;25.20;99.90
17381;DHT22;8808;52.478;13.378;2023-09-07T08:40:50;25.20;99.90
17381;DHT22;8808;52.478;13.378;2023-09-07T08:43:19;25.30;99.90
17381;DHT22;8808;52.478;13.378;2023-09-07T08:45:54;25.30;99.90
17381;DHT22;8808;52.478;13.378;2023-09-07T08:48:27;25.40;99.90
17381;DHT22;8808;52.478;13.378;2023-09-07T09:05:40;25.70;99.90
17381;DHT22;8808;52.478;13.378;2023-09-07T09:08:07;25.60;99.90
17381;DHT22;8808;52.478;13.378;2023-09-07T09:15:30;25.80;99.90
17381;DHT22;8808;52.478;13.378;2023-09-07T09:17:57;25.80;99.90
17381;DHT22;8808;52.478;13.378;2023-09-07T09:20:25;25.80;99.90
17381;DHT22;8808;52.478;13.378;2023-09-07T09:22:55;25.80;99.90
17381;DHT22;8808;52.478;13.378;2023-09-07T09:25:22;25.80;99.90
17381;DHT22;8808;52.478;13.378;2023-09-07T09:27:49;25.80;99.90
17381;DHT22;8808;52.478;13.378;2023-09-07T09:30:16;25.90;99.90
17381;DHT22;8808;52.478;13.378;2023-09-07T09:32:43;25.90;99.90
17381;DHT22;8808;52.478;13.378;2023-09-07T09:35:10;26.00;99.90
17381;DHT22;8808;52.478;13.378;2023-09-07T09:37:44;26.10;99.90
17381;DHT22;8808;52.478;13.378;2023-09-07T09:40:14;25.90;99.90
17381;DHT22;8808;52.478;13.378;2023-09-07T09:42:42;26.00;99.90
17381;DHT22;8808;52.478;13.378;2023-09-07T09:45:10;26.00;99.90
17381;DHT22;8808;52.478;13.378;2023-09-07T09:47:39;26.10;99.90
17381;DHT22;8808;52.478;13.378;2023-09-07T09:50:07;26.20;99.90
17381;DHT22;8808;52.478;13.378;2023-09-07T09:52:35;26.00;99.90
17381;DHT22;8808;52.478;13.378;2023-09-07T09:55:05;26.40;99.90
17381;DHT22;8808;52.478;13.378;2023-09-07T09:57:35;26.30;99.90
17381;DHT22;8808;52.478;13.378;2023-09-07T10:00:03;26.50;99.90
17381;DHT22;8808;52.478;13.378;2023-09-07T10:02:47;26.60;99.70
17381;DHT22;8808;52.478;13.378;2023-09-07T10:05:16;26.70;98.70
17381;DHT22;8808;52.478;13.378;2023-09-07T10:07:45;26.70;97.90
17381;DHT22;8808;52.478;13.378;2023-09-07T10:10:14;26.50;98.00
17381;DHT22;8808;52.478;13.378;2023-09-07T10:12:43;26.60;99.30
17381;DHT22;8808;52.478;13.378;2023-09-07T10:15:21;26.80;97.80
17381;DHT22;8808;52.478;13.378;2023-09-07T10:17:48;26.60;98.20
17381;DHT22;8808;52.478;13.378;2023-09-07T10:20:19;26.40;99.90
17381;DHT22;8808;52.478;13.378;2023-09-07T10:22:48;26.60;98.30
17381;DHT22;8808;52.478;13.378;2023-09-07T10:25:19;26.80;97.60
17381;DHT22;8808;52.478;13.378;2023-09-07T10:27:48;26.70;98.50
17381;DHT22;8808;52.478;13.378;2023-09-07T10:30:19;26.50;99.40
17381;DHT22;8808;52.478;13.378;2023-09-07T10:32:49;26.70;97.10
17381;DHT22;8808;52.478;13.378;2023-09-07T10:35:18;26.70;97.00
17381;DHT22;8808;52.478;13.378;2023-09-07T10:37:48;26.70;98.70
17381;DHT22;8808;52.478;13.378;2023-09-07T10:40:19;26.70;97.50
17381;DHT22;8808;52.478;13.378;2023-09-07T10:42:48;27.00;96.70
17381;DHT22;8808;52.478;13.378;2023-09-07T10:45:16;27.30;96.10
17381;DHT22;8808;52.478;13.378;2023-09-07T10:47:43;27.30;96.30
17381;DHT22;8808;52.478;13.378;2023-09-07T10:50:12;27.30;96.90
17381;DHT22;8808;52.478;13.378;2023-09-07T10:52:39;27.20;95.40
17381;DHT22;8808;52.478;13.378;2023-09-07T10:55:08;27.20;95.00
17381;DHT22;8808;52.478;13.378;2023-09-07T10:57:41;27.20;94.60
17381;DHT22;8808;52.478;13.378;2023-09-07T11:00:12;27.30;93.90
17381;DHT22;8808;52.478;13.378;2023-09-07T11:02:41;27.40;94.00
17381;DHT22;8808;52.478;13.378;2023-09-07T11:05:08;26.90;94.60
17381;DHT22;8808;52.478;13.378;2023-09-07T11:07:35;27.40;92.90
17381;DHT22;8808;52.478;13.378;2023-09-07T11:10:05;27.30;94.50
17381;DHT22;8808;52.478;13.378;2023-09-07T11:12:37;27.40;93.00
17381;DHT22;8808;52.478;13.378;2023-09-07T11:15:05;27.60;93.40
17381;DHT22;8808;52.478;13.378;2023-09-07T11:17:33;27.20;95.30
17381;DHT22;8808;52.478;13.378;2023-09-07T11:20:03;27.40;92.70
17381;DHT22;8808;52.478;13.378;2023-09-07T11:22:32;27.30;92.60
17381;DHT22;8808;52.478;13.378;2023-09-07T11:24:59;27.20;92.70
17381;DHT22;8808;52.478;13.378;2023-09-07T11:27:29;27.10;95.00
17381;DHT22;8808;52.478;13.378;2023-09-07T11:29:56;27.30;92.20
17381;DHT22;8808;52.478;13.378;2023-09-07T11:32:24;27.50;91.70
17381;DHT22;8808;52.478;13.378;2023-09-07T11:34:52;27.20;93.90
17381;DHT22;8808;52.478;13.378;2023-09-07T11:37:23;27.30;91.10
17381;DHT22;8808;52.478;13.378;2023-09-07T11:39:50;26.90;94.40
17381;DHT22;8808;52.478;13.378;2023-09-07T11:42:17;27.50;89.40
17381;DHT22;8808;52.478;13.378;2023-09-07T11:44:44;27.40;93.70
17381;DHT22;8808;52.478;13.378;2023-09-07T11:47:11;27.80;90.20
17381;DHT22;8808;52.478;13.378;2023-09-07T11:49:38;27.70;89.10
17381;DHT22;8808;52.478;13.378;2023-09-07T11:52:06;27.80;90.20
17381;DHT22;8808;52.478;13.378;2023-09-07T11:54:34;28.00;88.20
17381;DHT22;8808;52.478;13.378;2023-09-07T11:57:03;27.60;92.20
17381;DHT22;8808;52.478;13.378;2023-09-07T11:59:30;27.70;92.30
17381;DHT22;8808;52.478;13.378;2023-09-07T12:01:58;27.90;91.60
17381;DHT22;8808;52.478;13.378;2023-09-07T12:06:52;27.60;89.20
17381;DHT22;8808;52.478;13.378;2023-09-07T12:09:20;27.80;88.80
17381;DHT22;8808;52.478;13.378;2023-09-07T12:11:47;27.90;90.40
17381;DHT22;8808;52.478;13.378;2023-09-07T12:14:14;28.10;86.20
17381;DHT22;8808;52.478;13.378;2023-09-07T12:16:41;28.00;89.10
17381;DHT22;8808;52.478;13.378;2023-09-07T12:19:08;27.30;90.00
17381;DHT22;8808;52.478;13.378;2023-09-07T12:21:35;27.60;86.00
17381;DHT22;8808;52.478;13.378;2023-09-07T12:24:03;27.90;87.40
17381;DHT22;8808;52.478;13.378;2023-09-07T12:26:32;28.10;86.80
17381;DHT22;8808;52.478;13.378;2023-09-07T12:28:59;27.90;88.60
17381;DHT22;8808;52.478;13.378;2023-09-07T12:31:26;27.40;91.10
17381;DHT22;8808;52.478;13.378;2023-09-07T12:33:53;27.30;88.70
17381;DHT22;8808;52.478;13.378;2023-09-07T12:36:20;27.70;87.70
17381;DHT22;8808;52.478;13.378;2023-09-07T12:38:47;27.50;91.10
17381;DHT22;8808;52.478;13.378;2023-09-07T12:41:14;27.60;88.60
17381;DHT22;8808;52.478;13.378;2023-09-07T12:43:43;27.90;87.00
17381;DHT22;8808;52.478;13.378;2023-09-07T12:46:10;27.30;90.70
17381;DHT22;8808;52.478;13.378;2023-09-07T12:48:36;27.10;92.00
17381;DHT22;8808;52.478;13.378;2023-09-07T12:51:03;27.50;89.60
17381;DHT22;8808;52.478;13.378;2023-09-07T12:53:30;27.90;87.80
17381;DHT22;8808;52.478;13.378;2023-09-07T12:55:57;27.40;91.20
17381;DHT22;8808;52.478;13.378;2023-09-07T12:58:24;27.40;89.80
17381;DHT22;8808;52.478;13.378;2023-09-07T13:00:52;27.70;87.40
17381;DHT22;8808;52.478;13.378;2023-09-07T13:03:19;27.40;90.70
17381;DHT22;8808;52.478;13.378;2023-09-07T13:05:46;27.30;89.00
17381;DHT22;8808;52.478;13.378;2023-09-07T13:08:14;27.40;86.90
17381;DHT22;8808;52.478;13.378;2023-09-07T13:10:41;27.70;84.70
17381;DHT22;8808;52.478;13.378;2023-09-07T13:13:08;27.90;85.00
17381;DHT22;8808;52.478;13.378;2023-09-07T13:15:35;27.40;90.20
17381;DHT22;8808;52.478;13.378;2023-09-07T13:18:03;27.50;89.60
17381;DHT22;8808;52.478;13.378;2023-09-07T13:20:31;27.80;85.40
17381;DHT22;8808;52.478;13.378;2023-09-07T13:22:58;27.80;86.30
17381;DHT22;8808;52.478;13.378;2023-09-07T13:25:25;27.70;84.10
17381;DHT22;8808;52.478;13.378;2023-09-07T13:27:52;27.60;84.90
17381;DHT22;8808;52.478;13.378;2023-09-07T13:30:19;27.70;84.10
17381;DHT22;8808;52.478;13.378;2023-09-07T13:32:46;27.60;88.70
17381;DHT22;8808;52.478;13.378;2023-09-07T13:35:14;27.80;83.00
17381;DHT22;8808;52.478;13.378;2023-09-07T13:37:42;27.60;86.20
17381;DHT22;8808;52.478;13.378;2023-09-07T13:40:09;27.50;83.20
17381;DHT22;8808;52.478;13.378;2023-09-07T13:42:36;27.60;82.90
17381;DHT22;8808;52.478;13.378;2023-09-07T13:45:05;27.30;85.20
17381;DHT22;8808;52.478;13.378;2023-09-07T13:47:32;27.60;82.20
17381;DHT22;8808;52.478;13.378;2023-09-07T13:49:59;27.30;83.40
17381;DHT22;8808;52.478;13.378;2023-09-07T13:52:27;26.90;89.80
17381;DHT22;8808;52.478;13.378;2023-09-07T13:54:54;27.00;84.70
17381;DHT22;8808;52.478;13.378;2023-09-07T13:57:21;26.50;87.70
17381;DHT22;8808;52.478;13.378;2023-09-07T13:59:48;27.20;86.80
17381;DHT22;8808;52.478;13.378;2023-09-07T14:02:15;27.50;86.80
17381;DHT22;8808;52.478;13.378;2023-09-07T14:04:42;27.50;82.50
17381;DHT22;8808;52.478;13.378;2023-09-07T14:07:09;27.00;85.60
17381;DHT22;8808;52.478;13.378;2023-09-07T14:09:37;26.70;86.80
17381;DHT22;8808;52.478;13.378;2023-09-07T14:12:07;26.50;86.50
17381;DHT22;8808;52.478;13.378;2023-09-07T14:14:34;26.80;89.50
17381;DHT22;8808;52.478;13.378;2023-09-07T14:17:01;27.10;84.10
17381;DHT22;8808;52.478;13.378;2023-09-07T14:19:28;27.20;85.20
17381;DHT22;8808;52.478;13.378;2023-09-07T14:21:56;26.90;88.30
17381;DHT22;8808;52.478;13.378;2023-09-07T14:24:24;26.60;90.50
17381;DHT22;8808;52.478;13.378;2023-09-07T14:26:52;26.20;91.10
17381;DHT22;8808;52.478;13.378;2023-09-07T14:29:19;27.10;85.00
17381;DHT22;8808;52.478;13.378;2023-09-07T14:31:46;27.10;86.20
17381;DHT22;8808;52.478;13.378;2023-09-07T14:34:13;27.00;85.40
17381;DHT22;8808;52.478;13.378;2023-09-07T14:36:40;26.60;86.00
17381;DHT22;8808;52.478;13.378;2023-09-07T14:39:08;26.90;85.60
17381;DHT22;8808;52.478;13.378;2023-09-07T14:41:37;27.30;83.90
17381;DHT22;8808;52.478;13.378;2023-09-07T14:44:07;27.40;82.90
17381;DHT22;8808;52.478;13.378;2023-09-07T14:46:36;27.10;83.30
17381;DHT22;8808;52.478;13.378;2023-09-07T14:49:03;27.20;84.30
17381;DHT22;8808;52.478;13.378;2023-09-07T14:51:30;27.30;83.70
17381;DHT22;8808;52.478;13.378;2023-09-07T14:53:57;27.30;83.70
17381;DHT22;8808;52.478;13.378;2023-09-07T14:56:24;27.20;88.20
17381;DHT22;8808;52.478;13.378;2023-09-07T14:58:52;27.10;85.70
17381;DHT22;8808;52.478;13.378;2023-09-07T15:01:20;27.20;84.40
17381;DHT22;8808;52.478;13.378;2023-09-07T15:03:47;26.70;89.40
17381;DHT22;8808;52.478;13.378;2023-09-07T15:06:14;26.70;88.20
17381;DHT22;8808;52.478;13.378;2023-09-07T15:08:43;26.90;85.00
17381;DHT22;8808;52.478;13.378;2023-09-07T15:11:10;26.00;89.80
17381;DHT22;8808;52.478;13.378;2023-09-07T15:13:37;26.40;90.80
17381;DHT22;8808;52.478;13.378;2023-09-07T15:16:05;26.80;86.10
17381;DHT22;8808;52.478;13.378;2023-09-07T15:18:35;26.70;87.60
17381;DHT22;8808;52.478;13.378;2023-09-07T15:21:02;27.00;87.30
17381;DHT22;8808;52.478;13.378;2023-09-07T15:23:29;26.80;90.30
17381;DHT22;8808;52.478;13.378;2023-09-07T15:25:56;26.60;89.10
17381;DHT22;8808;52.478;13.378;2023-09-07T15:28:23;27.00;85.90
17381;DHT22;8808;52.478;13.378;2023-09-07T15:30:51;26.80;88.00
17381;DHT22;8808;52.478;13.378;2023-09-07T15:33:17;26.80;86.40
17381;DHT22;8808;52.478;13.378;2023-09-07T15:35:46;26.90;86.90
17381;DHT22;8808;52.478;13.378;2023-09-07T15:38:13;26.60;90.10
17381;DHT22;8808;52.478;13.378;2023-09-07T15:40:40;26.50;90.00
17381;DHT22;8808;52.478;13.378;2023-09-07T15:43:10;26.40;90.00
17381;DHT22;8808;52.478;13.378;2023-09-07T15:45:37;26.40;91.70
17381;DHT22;8808;52.478;13.378;2023-09-07T15:48:05;26.50;89.60
17381;DHT22;8808;52.478;13.378;2023-09-07T15:50:32;26.80;89.10
17381;DHT22;8808;52.478;13.378;2023-09-07T15:53:01;26.90;89.60
17381;DHT22;8808;52.478;13.378;2023-09-07T15:55:28;27.00;87.70
17381;DHT22;8808;52.478;13.378;2023-09-07T15:57:55;26.60;90.70
17381;DHT22;8808;52.478;13.378;2023-09-07T16:00:22;26.80;88.60
17381;DHT22;8808;52.478;13.378;2023-09-07T16:02:49;26.90;89.10
17381;DHT22;8808;52.478;13.378;2023-09-07T16:05:16;26.70;89.50
17381;DHT22;8808;52.478;13.378;2023-09-07T16:07:43;26.60;90.30
17381;DHT22;8808;52.478;13.378;2023-09-07T16:10:11;26.60;88.20
17381;DHT22;8808;52.478;13.378;2023-09-07T16:12:38;26.70;87.90
17381;DHT22;8808;52.478;13.378;2023-09-07T16:15:06;26.70;87.00
17381;DHT22;8808;52.478;13.378;2023-09-07T16:17:34;26.80;85.90
17381;DHT22;8808;52.478;13.378;2023-09-07T16:20:02;26.50;88.30
17381;DHT22;8808;52.478;13.378;2023-09-07T16:22:29;26.40;88.40